sensor_id;sensor_type;location;lat;lon;timestamp;pressure;altitude;pressure_sealevel;temperature;humidity
7109;BME280;29079;41.930;25.558;2022-09-02T00:01:55;99273.94;;;24.09;74.25
7109;BME280;29079;41.930;25.558;2022-09-02T00:04:26;99265.13;;;24.07;74.05
7109;BME280;29079;41.930;25.558;2022-09-02T00:06:56;99272.16;;;24.15;73.71
7109;BME280;29079;41.930;25.558;2022-09-02T00:09:26;99272.50;;;24.07;74.42
7109;BME280;29079;41.930;25.558;2022-09-02T00:11:56;99274.84;;;24.03;74.64
7109;BME280;29079;41.930;25.558;2022-09-02T00:14:29;99271.75;;;23.99;74.61
7109;BME280;29079;41.930;25.558;2022-09-02T00:17:00;99261.81;;;24.05;74.62
7109;BME280;29079;41.930;25.558;2022-09-02T00:19:31;99268.41;;;23.97;75.08
7109;BME280;29079;41.930;25.558;2022-09-02T00:22:02;99270.91;;;23.99;75.16
7109;BME280;29079;41.930;25.558;2022-09-02T00:24:33;99256.84;;;24.02;74.94
7109;BME280;29079;41.930;25.558;2022-09-02T00:27:03;99265.72;;;23.79;76.34
7109;BME280;29079;41.930;25.558;2022-09-02T00:29:34;99265.84;;;23.84;76.07
7109;BME280;29079;41.930;25.558;2022-09-02T00:32:05;99265.19;;;23.89;75.53
7109;BME280;29079;41.930;25.558;2022-09-02T00:34:37;99273.50;;;23.94;75.54
7109;BME280;29079;41.930;25.558;2022-09-02T00:37:06;99265.59;;;23.86;76.06
7109;BME280;29079;41.930;25.558;2022-09-02T00:39:36;99272.44;;;23.76;76.49
7109;BME280;29079;41.930;25.558;2022-09-02T00:42:07;99272.44;;;23.76;76.66
7109;BME280;29079;41.930;25.558;2022-09-02T00:44:37;99265.59;;;23.86;76.20
7109;BME280;29079;41.930;25.558;2022-09-02T00:47:07;99263.44;;;23.94;75.58
7109;BME280;29079;41.930;25.558;2022-09-02T00:49:40;99246.97;;;23.89;75.68
7109;BME280;29079;41.930;25.558;2022-09-02T00:52:15;99260.16;;;23.86;76.42
7109;BME280;29079;41.930;25.558;2022-09-02T00:54:49;99263.88;;;23.73;77.29
7109;BME280;29079;41.930;25.558;2022-09-02T00:57:24;99262.78;;;23.62;77.69
7109;BME280;29079;41.930;25.558;2022-09-02T01:00:00;99256.69;;;23.78;76.86
7109;BME280;29079;41.930;25.558;2022-09-02T01:02:32;99257.63;;;23.72;77.06
7109;BME280;29079;41.930;25.558;2022-09-02T01:05:07;99266.16;;;23.76;76.90
7109;BME280;29079;41.930;25.558;2022-09-02T01:07:38;99271.59;;;23.76;77.03
7109;BME280;29079;41.930;25.558;2022-09-02T01:10:11;99254.88;;;23.72;76.74
7109;BME280;29079;41.930;25.558;2022-09-02T01:12:42;99252.00;;;23.67;76.61
7109;BME280;29079;41.930;25.558;2022-09-02T01:15:13;99264.63;;;23.80;76.37
7109;BME280;29079;41.930;25.558;2022-09-02T01:17:46;99259.81;;;23.82;76.46
7109;BME280;29079;41.930;25.558;2022-09-02T01:20:21;99256.09;;;23.76;76.96
7109;BME280;29079;41.930;25.558;2022-09-02T01:22:54;99256.56;;;23.73;77.04
7109;BME280;29079;41.930;25.558;2022-09-02T01:25:28;99255.94;;;23.71;77.19
7109;BME280;29079;41.930;25.558;2022-09-02T01:27:59;99262.47;;;23.70;77.22
7109;BME280;29079;41.930;25.558;2022-09-02T01:30:30;99235.16;;;23.58;77.41
7109;BME280;29079;41.930;25.558;2022-09-02T01:33:01;99252.94;;;23.61;78.08
7109;BME280;29079;41.930;25.558;2022-09-02T01:35:31;99254.91;;;23.54;77.95
7109;BME280;29079;41.930;25.558;2022-09-02T01:38:03;99253.97;;;23.60;77.70
7109;BME280;29079;41.930;25.558;2022-09-02T01:40:34;99262.78;;;23.62;77.39
7109;BME280;29079;41.930;25.558;2022-09-02T01:43:07;99251.66;;;23.63;77.17
7109;BME280;29079;41.930;25.558;2022-09-02T01:45:39;99248.91;;;23.63;77.46
7109;BME280;29079;41.930;25.558;2022-09-02T01:48:10;99251.88;;;23.43;78.62
7109;BME280;29079;41.930;25.558;2022-09-02T01:50:43;99243.78;;;23.55;77.95
7109;BME280;29079;41.930;25.558;2022-09-02T01:53:16;99243.03;;;23.48;78.21
7109;BME280;29079;41.930;25.558;2022-09-02T01:55:46;99250.22;;;23.42;78.72
7109;BME280;29079;41.930;25.558;2022-09-02T01:58:16;99234.44;;;23.33;78.89
7109;BME280;29079;41.930;25.558;2022-09-02T02:00:46;99246.72;;;23.35;79.03
7109;BME280;29079;41.930;25.558;2022-09-02T02:03:17;99251.81;;;23.32;79.30
7109;BME280;29079;41.930;25.558;2022-09-02T02:05:48;99254.91;;;23.35;79.12
7109;BME280;29079;41.930;25.558;2022-09-02T02:08:19;99251.88;;;23.25;79.47
7109;BME280;29079;41.930;25.558;2022-09-02T02:10:49;99250.06;;;23.37;78.88
7109;BME280;29079;41.930;25.558;2022-09-02T02:13:20;99211.38;;;22.91;79.89
7109;BME280;29079;41.930;25.558;2022-09-02T02:15:50;99257.84;;;23.15;79.90
7109;BME280;29079;41.930;25.558;2022-09-02T02:18:20;99238.34;;;22.93;80.27
7109;BME280;29079;41.930;25.558;2022-09-02T02:20:50;99247.97;;;23.21;79.60
7109;BME280;29079;41.930;25.558;2022-09-02T02:23:22;99249.00;;;23.20;79.50
7109;BME280;29079;41.930;25.558;2022-09-02T02:25:52;99248.78;;;23.21;79.42
7109;BME280;29079;41.930;25.558;2022-09-02T02:28:22;99246.88;;;23.22;79.52
7109;BME280;29079;41.930;25.558;2022-09-02T02:30:52;99254.28;;;23.15;79.88
7109;BME280;29079;41.930;25.558;2022-09-02T02:33:22;99253.81;;;23.18;79.65
7109;BME280;29079;41.930;25.558;2022-09-02T02:36:05;99247.19;;;23.14;79.80
7109;BME280;29079;41.930;25.558;2022-09-02T02:38:37;99244.34;;;23.02;80.25
7109;BME280;29079;41.930;25.558;2022-09-02T02:41:08;99253.06;;;23.10;79.78
7109;BME280;29079;41.930;25.558;2022-09-02T02:43:39;99254.75;;;23.11;79.81
7109;BME280;29079;41.930;25.558;2022-09-02T02:46:09;99257.22;;;23.13;79.64
7109;BME280;29079;41.930;25.558;2022-09-02T02:48:40;99262.28;;;23.09;79.77
7109;BME280;29079;41.930;25.558;2022-09-02T02:51:10;99252.72;;;23.00;80.16
7109;BME280;29079;41.930;25.558;2022-09-02T02:53:42;99250.69;;;22.95;80.40
7109;BME280;29079;41.930;25.558;2022-09-02T02:56:12;99249.09;;;22.88;80.73
7109;BME280;29079;41.930;25.558;2022-09-02T02:58:42;99238.66;;;22.85;80.94
7109;BME280;29079;41.930;25.558;2022-09-02T03:01:12;99252.09;;;22.80;81.31
7109;BME280;29079;41.930;25.558;2022-09-02T03:03:42;99254.34;;;22.83;80.91
7109;BME280;29079;41.930;25.558;2022-09-02T03:06:12;99249.22;;;22.74;81.32
7109;BME280;29079;41.930;25.558;2022-09-02T03:08:44;99246.81;;;22.59;82.10
7109;BME280;29079;41.930;25.558;2022-09-02T03:11:19;99244.38;;;22.51;82.48
7109;BME280;29079;41.930;25.558;2022-09-02T03:13:50;99233.44;;;22.58;81.67
7109;BME280;29079;41.930;25.558;2022-09-02T03:16:20;99251.19;;;22.60;81.85
7109;BME280;29079;41.930;25.558;2022-09-02T03:18:50;99251.75;;;22.69;81.51
7109;BME280;29079;41.930;25.558;2022-09-02T03:21:22;99248.81;;;22.71;81.48
7109;BME280;29079;41.930;25.558;2022-09-02T03:23:53;99262.59;;;22.76;81.21
7109;BME280;29079;41.930;25.558;2022-09-02T03:26:25;99260.13;;;22.68;81.29
7109;BME280;29079;41.930;25.558;2022-09-02T03:28:57;99224.63;;;22.37;81.71
7109;BME280;29079;41.930;25.558;2022-09-02T03:31:27;99257.03;;;22.64;81.81
7109;BME280;29079;41.930;25.558;2022-09-02T03:34:00;99250.09;;;22.68;81.36
7109;BME280;29079;41.930;25.558;2022-09-02T03:36:32;99252.09;;;22.80;81.08
7109;BME280;29079;41.930;25.558;2022-09-02T03:39:05;99251.63;;;22.83;80.86
7109;BME280;29079;41.930;25.558;2022-09-02T03:41:37;99252.31;;;22.53;82.06
7109;BME280;29079;41.930;25.558;2022-09-02T03:44:09;99258.47;;;22.67;81.23
7109;BME280;29079;41.930;25.558;2022-09-02T03:46:39;99258.91;;;22.64;81.45
7109;BME280;29079;41.930;25.558;2022-09-02T03:49:09;99256.69;;;22.54;81.87
7109;BME280;29079;41.930;25.558;2022-09-02T03:51:41;99266.25;;;22.63;81.68
7109;BME280;29079;41.930;25.558;2022-09-02T03:54:13;99259.22;;;22.55;81.89
7109;BME280;29079;41.930;25.558;2022-09-02T03:56:43;99263.91;;;22.67;81.30
7109;BME280;29079;41.930;25.558;2022-09-02T03:59:13;99266.84;;;22.65;81.44
7109;BME280;29079;41.930;25.558;2022-09-02T04:01:43;99264.84;;;22.54;81.92
7109;BME280;29079;41.930;25.558;2022-09-02T04:04:14;99268.84;;;22.76;80.65
7109;BME280;29079;41.930;25.558;2022-09-02T04:06:50;99277.69;;;22.72;80.91
7109;BME280;29079;41.930;25.558;2022-09-02T04:09:21;99271.25;;;22.66;81.37
7109;BME280;29079;41.930;25.558;2022-09-02T04:11:51;99231.28;;;22.41;80.82
7109;BME280;29079;41.930;25.558;2022-09-02T04:14:22;99277.69;;;22.72;80.89
7109;BME280;29079;41.930;25.558;2022-09-02T04:16:52;99266.03;;;22.65;80.99
7109;BME280;29079;41.930;25.558;2022-09-02T04:19:22;99270.19;;;22.67;81.06
7109;BME280;29079;41.930;25.558;2022-09-02T04:21:52;99279.13;;;22.74;80.87
7109;BME280;29079;41.930;25.558;2022-09-02T04:24:24;99283.16;;;22.65;80.97
7109;BME280;29079;41.930;25.558;2022-09-02T04:26:55;99287.28;;;22.74;80.44
7109;BME280;29079;41.930;25.558;2022-09-02T04:29:31;99284.50;;;22.81;80.37
7109;BME280;29079;41.930;25.558;2022-09-02T04:32:02;99285.94;;;22.84;80.21
7109;BME280;29079;41.930;25.558;2022-09-02T04:34:32;99294.06;;;22.90;79.88
7109;BME280;29079;41.930;25.558;2022-09-02T04:37:02;99275.25;;;22.89;79.55
7109;BME280;29079;41.930;25.558;2022-09-02T04:39:34;99290.50;;;22.90;79.94
7109;BME280;29079;41.930;25.558;2022-09-02T04:42:04;99290.53;;;22.58;81.34
7109;BME280;29079;41.930;25.558;2022-09-02T04:44:34;99292.56;;;22.69;81.12
7109;BME280;29079;41.930;25.558;2022-09-02T04:47:05;99289.69;;;22.64;81.17
7109;BME280;29079;41.930;25.558;2022-09-02T04:49:35;99294.38;;;22.75;80.56
7109;BME280;29079;41.930;25.558;2022-09-02T04:52:05;99303.16;;;22.77;80.63
7109;BME280;29079;41.930;25.558;2022-09-02T04:54:38;99301.72;;;22.75;80.41
7109;BME280;29079;41.930;25.558;2022-09-02T04:57:08;99293.25;;;22.58;81.13
7109;BME280;29079;41.930;25.558;2022-09-02T04:59:38;99307.72;;;22.58;81.38
7109;BME280;29079;41.930;25.558;2022-09-02T05:02:08;99303.66;;;22.68;80.97
7109;BME280;29079;41.930;25.558;2022-09-02T05:04:40;99305.81;;;22.59;81.51
7109;BME280;29079;41.930;25.558;2022-09-02T05:07:10;99307.41;;;22.67;81.18
7109;BME280;29079;41.930;25.558;2022-09-02T05:09:42;99304.34;;;22.56;81.74
7109;BME280;29079;41.930;25.558;2022-09-02T05:12:13;99310.75;;;22.69;81.37
7109;BME280;29079;41.930;25.558;2022-09-02T05:14:43;99307.38;;;22.73;80.94
7109;BME280;29079;41.930;25.558;2022-09-02T05:17:16;99307.75;;;22.77;80.81
7109;BME280;29079;41.930;25.558;2022-09-02T05:19:46;99307.72;;;22.84;80.39
7109;BME280;29079;41.930;25.558;2022-09-02T05:22:16;99306.53;;;22.98;79.65
7109;BME280;29079;41.930;25.558;2022-09-02T05:24:48;99306.28;;;23.06;79.49
7109;BME280;29079;41.930;25.558;2022-09-02T05:27:18;99313.72;;;22.92;79.94
7109;BME280;29079;41.930;25.558;2022-09-02T05:29:53;99315.44;;;22.87;80.51
7109;BME280;29079;41.930;25.558;2022-09-02T05:32:23;99311.75;;;23.00;80.10
7109;BME280;29079;41.930;25.558;2022-09-02T05:34:53;99307.66;;;23.16;79.39
7109;BME280;29079;41.930;25.558;2022-09-02T05:37:24;99310.56;;;23.21;78.67
7109;BME280;29079;41.930;25.558;2022-09-02T05:39:58;99306.53;;;23.23;78.59
7109;BME280;29079;41.930;25.558;2022-09-02T05:42:32;99294.31;;;23.07;79.21
7109;BME280;29079;41.930;25.558;2022-09-02T05:45:06;99294.94;;;23.09;79.02
7109;BME280;29079;41.930;25.558;2022-09-02T05:47:39;99299.06;;;23.37;77.91
7109;BME280;29079;41.930;25.558;2022-09-02T05:50:10;99305.31;;;23.19;78.53
7109;BME280;29079;41.930;25.558;2022-09-02T05:52:41;99305.00;;;23.53;77.41
7109;BME280;29079;41.930;25.558;2022-09-02T05:55:13;99296.66;;;23.66;76.54
7109;BME280;29079;41.930;25.558;2022-09-02T05:57:43;99257.78;;;23.40;76.64
7109;BME280;29079;41.930;25.558;2022-09-02T06:00:14;99300.66;;;23.63;76.56
7109;BME280;29079;41.930;25.558;2022-09-02T06:02:45;99295.75;;;23.72;76.44
7109;BME280;29079;41.930;25.558;2022-09-02T06:05:15;99296.66;;;23.66;76.49
7109;BME280;29079;41.930;25.558;2022-09-02T06:07:46;99292.56;;;23.75;76.17
7109;BME280;29079;41.930;25.558;2022-09-02T06:10:18;99288.78;;;23.76;76.21
7109;BME280;29079;41.930;25.558;2022-09-02T06:12:47;99285.16;;;24.01;75.10
7109;BME280;29079;41.930;25.558;2022-09-02T06:15:18;99281.25;;;24.09;74.66
7109;BME280;29079;41.930;25.558;2022-09-02T06:17:48;99287.84;;;24.20;74.25
7109;BME280;29079;41.930;25.558;2022-09-02T06:20:18;99297.81;;;24.26;73.98
7109;BME280;29079;41.930;25.558;2022-09-02T06:22:48;99294.84;;;24.27;73.39
7109;BME280;29079;41.930;25.558;2022-09-02T06:25:19;99299.00;;;24.30;72.97
7109;BME280;29079;41.930;25.558;2022-09-02T06:27:49;99291.41;;;24.32;72.80
7109;BME280;29079;41.930;25.558;2022-09-02T06:30:19;99295.50;;;24.41;72.44
7109;BME280;29079;41.930;25.558;2022-09-02T06:32:49;99295.25;;;24.43;72.25
7109;BME280;29079;41.930;25.558;2022-09-02T06:35:19;99293.63;;;24.54;71.93
7109;BME280;29079;41.930;25.558;2022-09-02T06:38:00;99303.63;;;24.60;71.37
7109;BME280;29079;41.930;25.558;2022-09-02T06:40:31;99299.38;;;24.76;70.83
7109;BME280;29079;41.930;25.558;2022-09-02T06:43:01;99291.31;;;24.69;70.10
7109;BME280;29079;41.930;25.558;2022-09-02T06:45:32;99310.78;;;24.84;69.77
7109;BME280;29079;41.930;25.558;2022-09-02T06:48:10;99275.53;;;24.71;69.74
7109;BME280;29079;41.930;25.558;2022-09-02T06:50:42;99311.03;;;24.95;69.14
7109;BME280;29079;41.930;25.558;2022-09-02T06:53:13;99306.03;;;24.92;69.06
7109;BME280;29079;41.930;25.558;2022-09-02T06:55:47;99312.47;;;24.97;68.96
7109;BME280;29079;41.930;25.558;2022-09-02T06:58:17;99313.66;;;25.01;69.07
7109;BME280;29079;41.930;25.558;2022-09-02T07:00:47;99317.44;;;25.00;68.96
7109;BME280;29079;41.930;25.558;2022-09-02T07:03:17;99321.59;;;25.03;69.05
7109;BME280;29079;41.930;25.558;2022-09-02T07:06:06;99317.09;;;24.97;69.20
7109;BME280;29079;41.930;25.558;2022-09-02T07:08:38;99316.13;;;24.91;69.11
7109;BME280;29079;41.930;25.558;2022-09-02T07:11:18;99322.41;;;24.92;68.66
7109;BME280;29079;41.930;25.558;2022-09-02T07:13:48;99320.28;;;24.94;68.69
7109;BME280;29079;41.930;25.558;2022-09-02T07:16:22;99321.09;;;24.82;68.95
7109;BME280;29079;41.930;25.558;2022-09-02T07:18:55;99319.91;;;24.78;68.90
7109;BME280;29079;41.930;25.558;2022-09-02T07:21:25;99324.09;;;24.93;68.48
7109;BME280;29079;41.930;25.558;2022-09-02T07:23:57;99319.94;;;25.02;68.05
7109;BME280;29079;41.930;25.558;2022-09-02T07:26:28;99324.00;;;25.11;67.85
7109;BME280;29079;41.930;25.558;2022-09-02T07:28:58;99328.97;;;25.14;67.44
7109;BME280;29079;41.930;25.558;2022-09-02T07:31:30;99330.97;;;25.19;67.40
7109;BME280;29079;41.930;25.558;2022-09-02T07:34:00;99329.94;;;25.20;67.46
7109;BME280;29079;41.930;25.558;2022-09-02T07:36:31;99333.38;;;25.27;66.50
7109;BME280;29079;41.930;25.558;2022-09-02T07:39:03;99330.88;;;25.26;66.57
7109;BME280;29079;41.930;25.558;2022-09-02T07:41:36;99325.56;;;25.31;66.67
7109;BME280;29079;41.930;25.558;2022-09-02T07:44:07;99329.91;;;25.55;65.64
7109;BME280;29079;41.930;25.558;2022-09-02T07:46:39;99325.88;;;25.58;65.67
7109;BME280;29079;41.930;25.558;2022-09-02T07:49:13;99328.84;;;25.57;65.63
7109;BME280;29079;41.930;25.558;2022-09-02T07:51:47;99328.97;;;25.62;65.52
7109;BME280;29079;41.930;25.558;2022-09-02T07:54:20;99317.94;;;25.57;65.61
7109;BME280;29079;41.930;25.558;2022-09-02T07:56:53;99320.88;;;25.67;65.58
7109;BME280;29079;41.930;25.558;2022-09-02T07:59:23;99328.97;;;25.74;64.83
7109;BME280;29079;41.930;25.558;2022-09-02T08:01:53;99311.28;;;26.05;63.93
7109;BME280;29079;41.930;25.558;2022-09-02T08:04:23;99309.75;;;26.09;63.86
7109;BME280;29079;41.930;25.558;2022-09-02T08:06:53;99319.03;;;25.96;63.41
7109;BME280;29079;41.930;25.558;2022-09-02T08:09:23;99321.75;;;25.96;63.57
7109;BME280;29079;41.930;25.558;2022-09-02T08:11:55;99307.75;;;26.04;63.61
7109;BME280;29079;41.930;25.558;2022-09-02T08:14:27;99324.16;;;26.04;62.65
7109;BME280;29079;41.930;25.558;2022-09-02T08:16:57;99328.19;;;26.02;62.25
7109;BME280;29079;41.930;25.558;2022-09-02T08:19:27;99314.97;;;26.11;61.85
7109;BME280;29079;41.930;25.558;2022-09-02T08:22:01;99320.13;;;26.24;62.02
7109;BME280;29079;41.930;25.558;2022-09-02T08:24:32;99319.13;;;26.42;60.58
7109;BME280;29079;41.930;25.558;2022-09-02T08:27:03;99317.56;;;26.46;60.38
7109;BME280;29079;41.930;25.558;2022-09-02T08:29:34;99316.69;;;26.29;61.02
7109;BME280;29079;41.930;25.558;2022-09-02T08:32:04;99318.94;;;26.32;60.86
7109;BME280;29079;41.930;25.558;2022-09-02T08:34:35;99318.75;;;26.21;61.76
7109;BME280;29079;41.930;25.558;2022-09-02T08:37:05;99317.81;;;26.16;61.26
7109;BME280;29079;41.930;25.558;2022-09-02T08:39:35;99308.00;;;26.32;59.91
7109;BME280;29079;41.930;25.558;2022-09-02T08:42:13;99300.22;;;26.57;59.18
7109;BME280;29079;41.930;25.558;2022-09-02T08:44:49;99300.88;;;26.65;58.81
7109;BME280;29079;41.930;25.558;2022-09-02T08:47:25;99300.53;;;26.44;59.01
7109;BME280;29079;41.930;25.558;2022-09-02T08:50:00;99295.94;;;26.33;59.41
7109;BME280;29079;41.930;25.558;2022-09-02T08:52:37;99291.16;;;26.23;60.15
7109;BME280;29079;41.930;25.558;2022-09-02T08:55:11;99285.13;;;26.38;59.43
7109;BME280;29079;41.930;25.558;2022-09-02T08:57:45;99281.56;;;26.54;58.98
7109;BME280;29079;41.930;25.558;2022-09-02T09:00:16;99277.94;;;26.66;58.69
7109;BME280;29079;41.930;25.558;2022-09-02T09:02:54;99267.13;;;26.42;58.08
7109;BME280;29079;41.930;25.558;2022-09-02T09:05:38;99278.81;;;26.54;58.75
7109;BME280;29079;41.930;25.558;2022-09-02T09:08:17;99273.47;;;26.59;58.63
7109;BME280;29079;41.930;25.558;2022-09-02T09:10:58;99253.13;;;26.55;58.02
7109;BME280;29079;41.930;25.558;2022-09-02T09:13:46;99246.16;;;26.65;57.21
7109;BME280;29079;41.930;25.558;2022-09-02T09:16:29;99240.47;;;26.83;58.56
7109;BME280;29079;41.930;25.558;2022-09-02T09:19:07;99244.84;;;27.01;59.15
7109;BME280;29079;41.930;25.558;2022-09-02T09:21:40;99231.59;;;26.93;55.82
7109;BME280;29079;41.930;25.558;2022-09-02T09:24:25;99224.78;;;26.96;56.67
7109;BME280;29079;41.930;25.558;2022-09-02T09:27:01;99183.81;;;26.67;59.47
7109;BME280;29079;41.930;25.558;2022-09-02T09:29:36;99226.13;;;26.76;59.43
7109;BME280;29079;41.930;25.558;2022-09-02T09:32:18;99226.88;;;26.88;59.13
7109;BME280;29079;41.930;25.558;2022-09-02T09:34:56;99219.97;;;26.86;57.91
7109;BME280;29079;41.930;25.558;2022-09-02T09:37:35;99200.53;;;27.04;56.42
7109;BME280;29079;41.930;25.558;2022-09-02T09:40:28;99211.44;;;27.21;57.39
7109;BME280;29079;41.930;25.558;2022-09-02T09:43:11;99197.22;;;27.24;55.71
7109;BME280;29079;41.930;25.558;2022-09-02T09:45:53;99201.50;;;27.15;55.41
7109;BME280;29079;41.930;25.558;2022-09-02T09:48:24;99205.25;;;27.09;57.07
7109;BME280;29079;41.930;25.558;2022-09-02T09:51:13;99204.66;;;27.07;55.81
7109;BME280;29079;41.930;25.558;2022-09-02T09:53:45;99202.56;;;27.14;55.98
7109;BME280;29079;41.930;25.558;2022-09-02T09:56:27;99201.31;;;27.22;55.79
7109;BME280;29079;41.930;25.558;2022-09-02T09:58:58;99191.69;;;27.19;54.61
7109;BME280;29079;41.930;25.558;2022-09-02T10:01:31;99192.84;;;27.23;55.04
7109;BME280;29079;41.930;25.558;2022-09-02T10:04:03;99194.44;;;27.19;54.32
7109;BME280;29079;41.930;25.558;2022-09-02T10:06:55;99192.19;;;27.16;54.11
7109;BME280;29079;41.930;25.558;2022-09-02T10:09:29;99169.44;;;27.16;54.01
7109;BME280;29079;41.930;25.558;2022-09-02T10:12:02;99186.03;;;27.26;54.23
7109;BME280;29079;41.930;25.558;2022-09-02T10:14:36;99184.94;;;27.27;53.20
7109;BME280;29079;41.930;25.558;2022-09-02T10:17:34;99179.53;;;27.32;53.69
7109;BME280;29079;41.930;25.558;2022-09-02T10:20:13;99177.84;;;27.48;52.47
7109;BME280;29079;41.930;25.558;2022-09-02T10:23:05;99172.97;;;27.55;51.87
7109;BME280;29079;41.930;25.558;2022-09-02T10:25:49;99165.25;;;27.74;51.17
7109;BME280;29079;41.930;25.558;2022-09-02T10:28:33;99178.63;;;27.71;51.74
7109;BME280;29079;41.930;25.558;2022-09-02T10:31:12;99175.53;;;27.89;51.61
7109;BME280;29079;41.930;25.558;2022-09-02T10:33:55;99170.78;;;28.07;50.71
7109;BME280;29079;41.930;25.558;2022-09-02T10:36:36;99179.69;;;28.19;49.84
7109;BME280;29079;41.930;25.558;2022-09-02T10:39:15;99185.09;;;28.14;50.05
7109;BME280;29079;41.930;25.558;2022-09-02T10:41:50;99177.41;;;28.11;50.35
7109;BME280;29079;41.930;25.558;2022-09-02T10:44:27;99178.38;;;28.00;50.44
7109;BME280;29079;41.930;25.558;2022-09-02T10:47:01;99174.03;;;28.04;49.25
7109;BME280;29079;41.930;25.558;2022-09-02T10:49:44;99161.56;;;28.18;49.21
7109;BME280;29079;41.930;25.558;2022-09-02T10:52:31;99169.41;;;28.42;49.03
7109;BME280;29079;41.930;25.558;2022-09-02T10:55:12;99169.09;;;28.65;46.95
7109;BME280;29079;41.930;25.558;2022-09-02T10:57:48;99173.28;;;28.41;47.27
7109;BME280;29079;41.930;25.558;2022-09-02T11:00:20;99170.53;;;28.41;47.92
7109;BME280;29079;41.930;25.558;2022-09-02T11:02:53;99154.50;;;28.27;49.10
7109;BME280;29079;41.930;25.558;2022-09-02T11:05:27;99151.66;;;28.17;49.09
7109;BME280;29079;41.930;25.558;2022-09-02T11:08:02;99146.41;;;28.10;48.97
7109;BME280;29079;41.930;25.558;2022-09-02T11:10:37;99139.19;;;27.99;49.89
7109;BME280;29079;41.930;25.558;2022-09-02T11:13:14;99127.88;;;27.95;49.64
7109;BME280;29079;41.930;25.558;2022-09-02T11:15:51;99145.84;;;28.08;48.80
7109;BME280;29079;41.930;25.558;2022-09-02T11:18:31;99141.13;;;28.04;49.68
7109;BME280;29079;41.930;25.558;2022-09-02T11:21:09;99132.66;;;28.05;49.20
7109;BME280;29079;41.930;25.558;2022-09-02T11:23:49;99130.69;;;28.01;48.87
7109;BME280;29079;41.930;25.558;2022-09-02T11:26:26;99137.31;;;28.05;49.00
7109;BME280;29079;41.930;25.558;2022-09-02T11:29:04;99124.03;;;27.96;48.57
7109;BME280;29079;41.930;25.558;2022-09-02T11:31:39;99111.84;;;27.82;48.45
7109;BME280;29079;41.930;25.558;2022-09-02T11:34:18;99111.13;;;27.92;48.60
7109;BME280;29079;41.930;25.558;2022-09-02T11:36:51;99109.56;;;28.01;47.00
7109;BME280;29079;41.930;25.558;2022-09-02T11:39:27;99108.78;;;28.06;47.15
7109;BME280;29079;41.930;25.558;2022-09-02T11:42:30;99108.09;;;28.21;47.03
7109;BME280;29079;41.930;25.558;2022-09-02T11:45:16;99104.34;;;28.32;47.13
7109;BME280;29079;41.930;25.558;2022-09-02T11:48:20;99098.66;;;28.44;47.28
7109;BME280;29079;41.930;25.558;2022-09-02T11:51:13;99088.38;;;28.61;46.00
7109;BME280;29079;41.930;25.558;2022-09-02T11:53:55;99082.38;;;28.75;45.23
7109;BME280;29079;41.930;25.558;2022-09-02T11:56:30;99083.81;;;28.88;45.30
7109;BME280;29079;41.930;25.558;2022-09-02T11:59:04;99076.97;;;28.90;45.29
7109;BME280;29079;41.930;25.558;2022-09-02T12:01:36;99083.03;;;28.97;45.71
7109;BME280;29079;41.930;25.558;2022-09-02T12:04:18;99092.13;;;29.08;45.72
7109;BME280;29079;41.930;25.558;2022-09-02T12:07:23;99086.38;;;29.05;45.21
7109;BME280;29079;41.930;25.558;2022-09-02T12:09:58;99081.69;;;29.10;44.30
7109;BME280;29079;41.930;25.558;2022-09-02T12:13:01;99088.59;;;29.18;44.34
7109;BME280;29079;41.930;25.558;2022-09-02T12:15:36;99073.22;;;29.12;44.37
7109;BME280;29079;41.930;25.558;2022-09-02T12:18:11;99074.03;;;29.12;44.03
7109;BME280;29079;41.930;25.558;2022-09-02T12:21:08;99071.81;;;29.14;43.44
7109;BME280;29079;41.930;25.558;2022-09-02T12:24:07;99077.31;;;29.14;43.95
7109;BME280;29079;41.930;25.558;2022-09-02T12:27:10;99072.41;;;29.16;44.35
7109;BME280;29079;41.930;25.558;2022-09-02T12:29:47;99066.97;;;29.27;44.13
7109;BME280;29079;41.930;25.558;2022-09-02T12:35:51;99077.94;;;29.27;43.21
7109;BME280;29079;41.930;25.558;2022-09-02T12:38:30;99069.66;;;29.16;42.66
7109;BME280;29079;41.930;25.558;2022-09-02T12:41:19;99085.31;;;29.21;41.36
7109;BME280;29079;41.930;25.558;2022-09-02T12:44:03;99091.59;;;29.06;42.94
7109;BME280;29079;41.930;25.558;2022-09-02T12:46:56;99088.66;;;28.65;46.68
7109;BME280;29079;41.930;25.558;2022-09-02T12:49:46;99094.59;;;28.52;48.26
7109;BME280;29079;41.930;25.558;2022-09-02T12:52:42;99081.59;;;28.37;49.71
7109;BME280;29079;41.930;25.558;2022-09-02T12:55:18;99052.41;;;28.20;49.98
7109;BME280;29079;41.930;25.558;2022-09-02T12:57:50;99055.50;;;28.34;50.48
7109;BME280;29079;41.930;25.558;2022-09-02T13:00:38;99067.09;;;28.41;51.48
7109;BME280;29079;41.930;25.558;2022-09-02T13:03:27;99062.03;;;28.23;52.91
7109;BME280;29079;41.930;25.558;2022-09-02T13:06:04;99070.03;;;28.35;52.91
7109;BME280;29079;41.930;25.558;2022-09-02T13:09:10;99073.53;;;28.20;53.67
7109;BME280;29079;41.930;25.558;2022-09-02T13:12:01;99086.38;;;28.14;53.42
7109;BME280;29079;41.930;25.558;2022-09-02T13:15:00;99053.94;;;27.73;53.40
7109;BME280;29079;41.930;25.558;2022-09-02T13:17:45;99098.75;;;27.89;52.96
7109;BME280;29079;41.930;25.558;2022-09-02T13:20:46;99129.66;;;27.52;54.48
7109;BME280;29079;41.930;25.558;2022-09-02T13:26:32;99159.91;;;27.40;56.71
7109;BME280;29079;41.930;25.558;2022-09-02T13:29:35;99172.19;;;27.16;57.90
7109;BME280;29079;41.930;25.558;2022-09-02T13:32:13;99162.44;;;26.64;58.34
7109;BME280;29079;41.930;25.558;2022-09-02T13:34:48;99129.78;;;26.40;58.25
7109;BME280;29079;41.930;25.558;2022-09-02T13:37:28;99164.00;;;26.59;58.85
7109;BME280;29079;41.930;25.558;2022-09-02T13:39:59;99161.03;;;26.44;58.94
7109;BME280;29079;41.930;25.558;2022-09-02T13:42:30;99152.41;;;26.52;58.84
7109;BME280;29079;41.930;25.558;2022-09-02T13:45:14;99158.38;;;26.32;58.26
7109;BME280;29079;41.930;25.558;2022-09-02T13:47:47;99151.16;;;26.09;60.36